KCDR/CDR METAR and TAF weather

Enter ICAO airport designator
Station Type Date Time Source
KCDR METAR 2019/10/21 21:53 UTC NOAA

KCDR 212153Z AUTO 31017G29KT 10SM SCT070 11/M06 A2995 RMK AO2 PK WND 32029/2151 SLP158 T01061056


Station Type Date Time Source
KCDR Decoded METAR 2019/10/21 21:53 UTC NOAA

CHADRON MUNICIPAL AIRPORT, NE, United States (KCDR) 42-50N 103-06W 1010M
Oct 21, 2019 - 05:53 PM EDT / 2019.10.21 2153 UTC
Wind: from the NW (310 degrees) at 20 MPH (17 KT) gusting to 33 MPH (29 KT):0
Visibility: 10 mile(s):0
Sky conditions: partly cloudy
Temperature: 51.1 F (10.6 C)
Dew Point: 21.9 F (-5.6 C)
Relative Humidity: 31%
Pressure (altimeter): 29.95 in. Hg (1014 hPa)
ob: KCDR 212153Z AUTO 31017G29KT 10SM SCT070 11/M06 A2995 RMK AO2 PK WND 32029/2151 SLP158 T01061056
cycle: 22

Station Type Date Time Source
KCDR TAF 2019/10/21 18:24 UTC NOAA

TAF KCDR 211723Z 2118/2218 32015G28KT P6SM SKC
FM220000 28010KT P6SM BKN200
FM221600 29018G26KT P6SM BKN100

Example: see airport list